Time;durP1;ratioP1;P1;durP2;ratioP2;P2;SDS_P1;SDS_P2;PMS_P1;PMS_P2;Temp;Humidity;BMP_temperature;BMP_pressure;BME280_temperature;BME280_humidity;BME280_pressure;Samples;Min_cycle;Max_cycle;Signal;HPM_P1;HPM_P2
2021/01/20 00:02:08;;;;;;;6.03;1.50;;;17.50;64.80;;;;;;5014512;27;95857;-39
2021/01/20 00:04:38;;;;;;;;;;;17.50;64.80;;;;;;5016446;28;96096;-39
2021/01/20 00:07:09;;;;;;;4.95;1.90;;;17.50;64.80;;;;;;5028607;27;97737;-39
2021/01/20 00:09:41;;;;;;;3.72;1.42;;;17.60;64.80;;;;;;5028912;27;95925;-39
2021/01/20 00:12:16;;;;;;;4.97;1.83;;;17.60;64.70;;;;;;5010830;28;99860;-39
2021/01/20 00:14:46;;;;;;;5.03;2.08;;;17.60;64.70;;;;;;5010468;28;96530;-39
2021/01/20 00:17:19;;;;;;;6.82;1.88;;;17.70;64.70;;;;;;5009489;27;95702;-39
2021/01/20 00:19:53;;;;;;;3.22;1.38;;;17.70;64.60;;;;;;5020491;27;95364;-39
2021/01/20 00:22:28;;;;;;;2.95;1.50;;;17.80;64.60;;;;;;5015100;27;95931;-39
2021/01/20 00:24:57;;;;;;;3.03;1.63;;;17.80;64.50;;;;;;5026769;28;96425;-40
2021/01/20 00:27:27;;;;;;;4.20;1.73;;;17.80;64.50;;;;;;5025704;28;95713;-39
2021/01/20 00:29:57;;;;;;;5.13;1.80;;;17.90;64.70;;;;;;5013535;28;95957;-40
2021/01/20 00:32:27;;;;;;;3.70;1.45;;;17.90;64.50;;;;;;5014471;27;97974;-40
2021/01/20 00:34:59;;;;;;;3.20;1.30;;;17.90;64.50;;;;;;5016005;27;95907;-40
2021/01/20 00:37:30;;;;;;;3.45;1.52;;;18.00;64.40;;;;;;5016091;27;95822;-40
2021/01/20 00:40:01;;;;;;;4.82;1.67;;;18.00;64.30;;;;;;5015276;28;97059;-40
2021/01/20 00:42:31;;;;;;;5.30;2.20;;;18.00;64.30;;;;;;5028140;28;95352;-40
2021/01/20 00:45:05;;;;;;;2.92;2.00;;;18.10;64.40;;;;;;5013666;27;96304;-41
2021/01/20 00:47:35;;;;;;;2.20;1.10;;;18.10;64.30;;;;;;5018690;27;95997;-40
2021/01/20 00:50:08;;;;;;;2.95;1.45;;;18.10;64.20;;;;;;5025000;27;95296;-40
2021/01/20 00:53:03;;;;;;;3.13;1.60;;;18.20;64.30;;;;;;5015339;27;95729;-40
2021/01/20 00:55:35;;;;;;;3.50;1.77;;;18.30;64.40;;;;;;5016788;28;96163;-41
2021/01/20 00:58:07;;;;;;;3.15;1.90;;;18.30;64.20;;;;;;5021179;28;95915;-41
2021/01/20 01:00:39;;;;;;;3.47;1.80;;;18.30;64.10;;;;;;5014158;27;96263;-40
2021/01/20 01:03:11;;;;;;;2.08;1.55;;;18.40;64.20;;;;;;5021635;27;96126;-40
2021/01/20 01:05:43;;;;;;;3.75;1.75;;;18.40;64.10;;;;;;5009678;28;96147;-40
2021/01/20 01:08:15;;;;;;;3.25;1.95;;;18.40;64.10;;;;;;5017468;27;95883;-44
2021/01/20 01:10:50;;;;;;;5.32;1.60;;;18.50;64.10;;;;;;5022127;28;98439;-40
2021/01/20 01:13:49;;;;;;;3.27;1.77;;;18.50;64.10;;;;;;5007002;28;95655;-40
2021/01/20 01:16:46;;;;;;;8.30;1.77;;;18.60;64.10;;;;;;5048172;27;99061;-40
2021/01/20 01:19:33;;;;;;;3.63;1.33;;;18.60;64.10;;;;;;5015764;28;96162;-40
2021/01/20 01:22:06;;;;;;;3.78;1.55;;;18.60;64.00;;;;;;5010166;27;95868;-40
2021/01/20 01:24:39;;;;;;;4.70;1.80;;;18.70;64.00;;;;;;5053873;27;97454;-41
2021/01/20 01:27:09;;;;;;;5.88;1.60;;;18.70;63.90;;;;;;5012730;28;96223;-41
2021/01/20 01:29:40;;;;;;;4.47;1.95;;;18.80;64.00;;;;;;5010506;28;96283;-40
2021/01/20 01:32:22;;;;;;;7.85;6.15;;;18.90;63.90;;;;;;5011577;27;95749;-41
2021/01/20 01:34:53;;;;;;;2.80;1.70;;;18.90;63.90;;;;;;5016408;28;95438;-40
2021/01/20 01:37:24;;;;;;;4.72;1.85;;;18.90;63.80;;;;;;5017114;28;96677;-40
2021/01/20 01:40:18;;;;;;;3.65;1.30;;;19.00;63.90;;;;;;5004555;28;95808;-40
2021/01/20 01:43:20;;;;;;;2.08;1.30;;;19.00;63.80;;;;;;4997042;28;95930;-40
2021/01/20 01:46:11;;;;;;;3.50;1.33;;;19.10;63.80;;;;;;4996188;27;100470;-40
2021/01/20 01:48:49;;;;;;;5.07;2.05;;;19.10;63.70;;;;;;5014155;28;96295;-41
2021/01/20 01:51:25;;;;;;;3.42;1.50;;;19.10;63.60;;;;;;5004899;28;95801;-40
2021/01/20 01:54:16;;;;;;;3.15;1.52;;;19.20;63.70;;;;;;4992265;28;96421;-41
2021/01/20 01:56:49;;;;;;;2.38;1.20;;;19.20;63.50;;;;;;5002007;28;97898;-41
2021/01/20 01:59:24;;;;;;;2.58;1.45;;;19.30;63.60;;;;;;4989055;28;97664;-40
2021/01/20 02:01:56;;;;;;;4.00;1.30;;;19.30;63.50;;;;;;4998570;28;96083;-41
2021/01/20 02:04:35;;;;;;;4.90;1.70;;;19.30;63.50;;;;;;5023300;28;98465;-41
2021/01/20 02:07:13;;;;;;;4.03;1.40;;;19.40;63.50;;;;;;5018037;27;95858;-41
2021/01/20 02:09:45;;;;;;;2.22;1.15;;;19.40;63.50;;;;;;5034114;27;96946;-41
2021/01/20 02:12:53;;;;;;;2.28;1.27;;;19.50;63.40;;;;;;5018765;28;97656;-41
2021/01/20 02:16:00;;;;;;;2.72;1.15;;;19.50;63.50;;;;;;5005281;28;95697;-41
2021/01/20 02:18:37;;;;;;;4.80;1.38;;;19.50;63.40;;;;;;5016716;27;96174;-41
2021/01/20 02:21:25;;;;;;;2.28;1.23;;;19.60;63.30;;;;;;5017446;28;96044;-38
2021/01/20 02:24:47;;;;;;;2.47;1.50;;;19.60;63.40;;;;;;5003362;28;96023;-40
2021/01/20 02:28:04;;;;;;;4.25;1.77;;;19.70;63.40;;;;;;5020324;28;95872;-41
2021/01/20 02:30:39;;;;;;;1.63;0.90;;;19.70;63.20;;;;;;5005873;28;97886;-41
2021/01/20 02:33:33;;;;;;;2.58;1.23;;;19.80;63.10;;;;;;4995971;28;95923;-40
2021/01/20 02:36:24;;;;;;;2.47;1.05;;;19.80;63.10;;;;;;4987982;28;97681;-41
2021/01/20 02:39:14;;;;;;;1.83;1.10;;;19.90;63.00;;;;;;4981885;28;95309;-41
2021/01/20 02:41:47;;;;;;;3.88;1.20;;;19.90;62.90;;;;;;5003241;28;95741;-41
2021/01/20 02:44:26;;;;;;;1.33;0.93;;;20.00;62.90;;;;;;4989683;28;95976;-41
2021/01/20 02:47:08;;;;;;;3.10;1.45;;;20.00;62.80;;;;;;4987264;28;96254;-41
2021/01/20 02:49:54;;;;;;;2.97;1.17;;;20.10;62.90;;;;;;4994051;28;96029;-41
2021/01/20 02:52:35;;;;;;;2.80;1.30;;;20.10;62.80;;;;;;4994203;28;95671;-41
2021/01/20 02:55:30;;;;;;;2.97;1.92;;;20.20;62.90;;;;;;4990619;28;95617;-41
2021/01/20 02:58:25;;;;;;;1.83;0.80;;;20.20;62.70;;;;;;4988152;28;95770;-41
2021/01/20 03:01:17;;;;;;;2.80;1.42;;;20.30;62.70;;;;;;4995132;28;95390;-43
2021/01/20 03:03:52;;;;;;;3.55;1.52;;;20.30;63.10;;;;;;4987856;28;95485;-41
2021/01/20 03:06:24;;;;;;;3.65;1.40;;;20.40;62.50;;;;;;4993728;28;95880;-41
2021/01/20 03:08:55;;;;;;;3.75;1.17;;;20.40;62.40;;;;;;4998635;28;97139;-42
2021/01/20 03:11:26;;;;;;;2.05;1.23;;;20.40;62.50;;;;;;4997144;28;95484;-41
2021/01/20 03:13:58;;;;;;;4.35;1.42;;;20.50;62.40;;;;;;5000182;28;95844;-41
2021/01/20 03:16:30;;;;;;;1.58;0.90;;;20.50;62.30;;;;;;4996071;28;97737;-42
2021/01/20 03:19:01;;;;;;;3.85;1.50;;;20.60;62.30;;;;;;4993846;28;95493;-41
2021/01/20 03:21:32;;;;;;;3.50;1.42;;;20.60;62.20;;;;;;5003964;28;95442;-41
2021/01/20 03:24:03;;;;;;;2.00;1.17;;;20.70;62.20;;;;;;4990507;28;95869;-41
2021/01/20 03:26:34;;;;;;;2.95;1.02;;;20.70;62.00;;;;;;4997918;28;95766;-41
2021/01/20 03:29:07;;;;;;;1.70;1.00;;;20.70;62.10;;;;;;4996474;28;95973;-41
2021/01/20 03:31:36;;;;;;;2.85;1.30;;;20.80;62.00;;;;;;4987731;28;95406;-41
2021/01/20 03:34:06;;;;;;;1.63;0.82;;;20.80;61.90;;;;;;4998818;28;95683;-42
2021/01/20 03:36:35;;;;;;;3.53;1.45;;;20.90;61.90;;;;;;4994547;28;95719;-41
2021/01/20 03:39:05;;;;;;;1.95;1.30;;;20.90;61.80;;;;;;4989061;28;95871;-41
2021/01/20 03:41:34;;;;;;;2.50;1.17;;;20.90;61.80;;;;;;4988393;28;95722;-41
2021/01/20 03:44:04;;;;;;;4.05;1.55;;;21.00;61.80;;;;;;4989693;28;95945;-41
2021/01/20 03:46:34;;;;;;;2.70;1.30;;;21.00;61.70;;;;;;4988779;28;97592;-41
2021/01/20 03:49:06;;;;;;;2.50;0.90;;;21.00;61.70;;;;;;5003376;28;95468;-41
2021/01/20 03:51:37;;;;;;;2.15;0.93;;;21.10;61.70;;;;;;4993213;28;95393;-41
2021/01/20 03:54:08;;;;;;;;;;;21.10;61.50;;;;;;5004455;28;95800;-42
2021/01/20 03:56:40;;;;;;;3.58;1.25;;;21.20;62.00;;;;;;4992269;28;103051;-41
2021/01/20 03:59:11;;;;;;;2.97;1.35;;;21.20;61.60;;;;;;4990549;28;96001;-41
2021/01/20 04:01:42;;;;;;;1.50;0.90;;;21.30;62.20;;;;;;4992060;28;103869;-42
2021/01/20 04:04:12;;;;;;;2.65;1.23;;;21.30;61.50;;;;;;4998466;28;95871;-41
2021/01/20 04:06:46;;;;;;;1.70;1.00;;;21.30;61.40;;;;;;5003434;28;95971;-41
2021/01/20 04:09:16;;;;;;;3.47;1.40;;;21.30;61.40;;;;;;5001554;28;95852;-41
2021/01/20 04:11:48;;;;;;;3.50;2.70;;;21.40;61.50;;;;;;4991931;28;96065;-41
2021/01/20 04:14:18;;;;;;;2.70;1.40;;;21.40;61.30;;;;;;4997982;28;95836;-41
2021/01/20 04:16:50;;;;;;;1.50;1.00;;;21.50;61.30;;;;;;4997700;28;96182;-41
2021/01/20 04:19:21;;;;;;;2.50;0.90;;;21.50;61.20;;;;;;5004789;28;95895;-41
2021/01/20 04:21:53;;;;;;;3.65;1.15;;;21.60;61.20;;;;;;4992553;28;95622;-41
2021/01/20 04:24:22;;;;;;;1.95;1.38;;;21.60;61.20;;;;;;5000614;28;96272;-41
2021/01/20 04:26:52;;;;;;;2.78;1.50;;;21.60;61.20;;;;;;5008319;28;96533;-41
2021/01/20 04:29:21;;;;;;;2.38;1.17;;;21.70;61.10;;;;;;4991216;28;96340;-42
2021/01/20 04:31:51;;;;;;;1.70;1.02;;;21.70;61.00;;;;;;4989205;28;95651;-41
2021/01/20 04:34:21;;;;;;;3.72;1.55;;;21.70;61.00;;;;;;5002915;28;95864;-41
2021/01/20 04:36:55;;;;;;;1.65;0.98;;;21.80;61.00;;;;;;5003188;28;96059;-41
2021/01/20 04:39:24;;;;;;;3.95;1.40;;;21.80;61.00;;;;;;4994470;28;95905;-43
2021/01/20 04:41:55;;;;;;;2.17;1.17;;;21.80;60.90;;;;;;5001997;28;96131;-41
2021/01/20 04:44:28;;;;;;;1.95;1.10;;;21.90;60.90;;;;;;4991860;28;95704;-41
2021/01/20 04:47:05;;;;;;;3.72;1.20;;;22.00;60.90;;;;;;4995275;28;95906;-41
2021/01/20 04:49:36;;;;;;;2.95;1.20;;;22.00;60.90;;;;;;4993009;28;96380;-41
2021/01/20 04:52:10;;;;;;;2.00;1.00;;;22.00;60.80;;;;;;4995989;28;95978;-41
2021/01/20 04:54:42;;;;;;;1.83;1.10;;;22.10;60.80;;;;;;4996515;28;101374;-41
2021/01/20 04:57:15;;;;;;;3.50;1.35;;;22.10;60.60;;;;;;4996337;28;95752;-41
2021/01/20 04:59:45;;;;;;;1.05;0.55;;;22.10;60.80;;;;;;4997451;28;95848;-41
2021/01/20 05:02:18;;;;;;;3.50;1.93;;;22.10;60.60;;;;;;5000626;28;95979;-41
2021/01/20 05:04:53;;;;;;;2.47;1.17;;;22.20;60.70;;;;;;4994253;28;95747;-41
2021/01/20 05:07:24;;;;;;;1.98;1.13;;;22.20;60.60;;;;;;4990979;28;96429;-41
2021/01/20 05:09:57;;;;;;;3.70;1.27;;;22.30;60.70;;;;;;4995817;28;95656;-41
2021/01/20 05:12:44;;;;;;;2.45;1.10;;;22.30;60.60;;;;;;5003121;28;95964;-41
2021/01/20 05:15:17;;;;;;;1.60;0.93;;;22.30;60.70;;;;;;4998475;28;95776;-41
2021/01/20 05:18:16;;;;;;;3.40;1.52;;;22.40;60.50;;;;;;5002027;28;96455;-41
2021/01/20 05:20:47;;;;;;;2.78;1.10;;;22.40;60.60;;;;;;4994837;28;97196;-41
2021/01/20 05:23:27;;;;;;;2.78;1.05;;;22.40;60.40;;;;;;4992884;28;95508;-41
2021/01/20 05:25:56;;;;;;;1.50;1.02;;;22.50;60.50;;;;;;4997234;28;98569;-42
2021/01/20 05:28:28;;;;;;;3.80;1.08;;;22.50;60.40;;;;;;5007327;28;95946;-41
2021/01/20 05:30:59;;;;;;;3.55;1.02;;;22.50;60.30;;;;;;4992063;28;102555;-41
2021/01/20 05:33:36;;;;;;;2.50;1.27;;;22.60;60.30;;;;;;4991217;28;95771;-42
2021/01/20 05:36:08;;;;;;;2.58;1.42;;;22.60;60.10;;;;;;4987136;28;95845;-41
2021/01/20 05:38:45;;;;;;;6.22;1.48;;;22.60;59.80;;;;;;5004768;28;96048;-41
2021/01/20 05:41:23;;;;;;;1.90;1.13;;;22.60;59.80;;;;;;4986039;28;96025;-41
2021/01/20 05:44:15;;;;;;;2.35;1.00;;;22.60;59.50;;;;;;5004162;28;96201;-41
2021/01/20 05:46:45;;;;;;;3.78;1.10;;;22.60;59.20;;;;;;4995632;28;97137;-41
2021/01/20 05:49:29;;;;;;;2.63;1.38;;;22.60;58.90;;;;;;5002626;28;96641;-42
2021/01/20 05:52:02;;;;;;;2.45;1.33;;;22.60;58.90;;;;;;4993537;28;96515;-42
2021/01/20 05:54:38;;;;;;;2.15;1.35;;;22.60;58.30;;;;;;4992743;28;95719;-41
2021/01/20 05:57:21;;;;;;;1.20;0.65;;;22.60;59.30;;;;;;4994430;28;97222;-42
2021/01/20 05:59:54;;;;;;;1.33;0.82;;;22.60;58.60;;;;;;4998171;28;95817;-41
2021/01/20 06:02:25;;;;;;;2.75;1.02;;;22.60;58.20;;;;;;4994311;28;95661;-42
2021/01/20 06:04:57;;;;;;;3.97;1.55;;;22.60;58.00;;;;;;5007152;28;95584;-41
2021/01/20 06:07:29;;;;;;;4.25;1.00;;;22.70;57.90;;;;;;4997895;28;95221;-42
2021/01/20 06:10:03;;;;;;;2.10;1.25;;;22.70;58.00;;;;;;5000116;28;96803;-41
2021/01/20 06:12:34;;;;;;;2.15;1.40;;;22.70;58.30;;;;;;4996442;28;97767;-42
2021/01/20 06:15:05;;;;;;;4.43;1.10;;;22.70;57.50;;;;;;4991838;28;95747;-41
2021/01/20 06:17:39;;;;;;;2.35;1.10;;;22.70;57.30;;;;;;5000569;28;95710;-41
2021/01/20 06:20:12;;;;;;;3.30;1.10;;;22.70;57.30;;;;;;5002762;28;95867;-44
2021/01/20 06:22:49;;;;;;;1.52;1.13;;;22.70;57.00;;;;;;5018881;28;96490;-41
2021/01/20 06:25:32;;;;;;;3.28;1.10;;;22.70;57.00;;;;;;5003017;28;95248;-41
2021/01/20 06:28:09;;;;;;;1.52;1.00;;;22.70;57.10;;;;;;4994669;28;97754;-41
2021/01/20 06:30:45;;;;;;;3.88;1.25;;;22.80;56.90;;;;;;4989436;28;97265;-41
2021/01/20 06:33:18;;;;;;;2.58;1.48;;;22.80;56.70;;;;;;4999860;28;95615;-43
2021/01/20 06:35:51;;;;;;;2.90;1.30;;;22.80;56.50;;;;;;4998824;28;95311;-42
2021/01/20 06:38:28;;;;;;;4.47;1.27;;;22.80;56.30;;;;;;4997497;28;97902;-41
2021/01/20 06:41:12;;;;;;;2.38;1.15;;;22.80;56.00;;;;;;4996670;28;96212;-42
2021/01/20 06:43:47;;;;;;;1.02;0.93;;;22.80;56.00;;;;;;4986136;28;95940;-42
2021/01/20 06:46:22;;;;;;;2.20;1.15;;;22.80;55.40;;;;;;4986855;28;95911;-42
2021/01/20 06:49:00;;;;;;;1.73;1.00;;;22.80;55.40;;;;;;4991040;28;95719;-41
2021/01/20 06:51:35;;;;;;;3.65;1.17;;;22.80;55.10;;;;;;4997968;28;95867;-42
2021/01/20 06:54:10;;;;;;;2.08;1.27;;;22.80;54.90;;;;;;5000770;28;95847;-44
2021/01/20 06:56:49;;;;;;;1.02;0.93;;;22.80;54.70;;;;;;4992963;28;95767;-42
2021/01/20 06:59:23;;;;;;;3.75;1.63;;;22.80;54.50;;;;;;5000078;28;95378;-44
2021/01/20 07:02:04;;;;;;;10.45;5.88;;;22.80;54.30;;;;;;4986999;28;99976;-41
2021/01/20 07:04:38;;;;;;;20.48;13.70;;;22.80;54.40;;;;;;4992517;28;96964;-41
2021/01/20 07:07:12;;;;;;;34.28;21.88;;;22.80;54.20;;;;;;5001368;28;97873;-42
2021/01/20 07:09:52;;;;;;;46.75;24.83;;;22.80;54.00;;;;;;4995729;28;95456;-41
2021/01/20 07:12:26;;;;;;;42.63;27.40;;;22.80;54.50;;;;;;4990381;28;96366;-45
2021/01/20 07:14:56;;;;;;;42.58;25.88;;;22.90;54.50;;;;;;4991203;28;95410;-42
2021/01/20 07:17:27;;;;;;;46.43;27.73;;;22.80;54.40;;;;;;4990298;28;95202;-42
2021/01/20 07:20:00;;;;;;;35.95;22.67;;;22.90;54.40;;;;;;4994784;28;95833;-42
2021/01/20 07:22:32;;;;;;;39.30;22.85;;;22.90;54.60;;;;;;4989463;28;96306;-42
2021/01/20 07:25:01;;;;;;;40.78;24.33;;;22.90;54.60;;;;;;4992379;28;96084;-42
2021/01/20 07:27:31;;;;;;;44.65;25.73;;;22.90;54.70;;;;;;5003982;28;96844;-42
2021/01/20 07:30:15;;;;;;;;;;;22.90;54.80;;;;;;4989481;28;95464;-42
2021/01/20 07:32:45;;;;;;;45.47;25.42;;;23.00;55.10;;;;;;4996233;28;95817;-45
2021/01/20 07:35:21;;;;;;;39.55;21.75;;;23.00;55.20;;;;;;4996135;28;95954;-42
2021/01/20 07:38:06;;;;;;;41.10;21.92;;;23.00;55.30;;;;;;5003880;28;95915;-42
2021/01/20 07:40:40;;;;;;;37.85;19.35;;;23.10;55.50;;;;;;4994480;28;95399;-42
2021/01/20 07:43:20;;;;;;;39.05;20.55;;;23.10;55.70;;;;;;5016131;28;96136;-43
2021/01/20 07:45:56;;;;;;;34.08;18.90;;;23.10;55.80;;;;;;4999242;28;101490;-43
2021/01/20 07:48:30;;;;;;;29.55;17.20;;;23.10;56.00;;;;;;4997241;28;98425;-44
2021/01/20 07:51:02;;;;;;;32.67;17.95;;;23.10;55.90;;;;;;4993888;28;95960;-42
2021/01/20 07:53:34;;;;;;;28.58;16.63;;;23.20;56.00;;;;;;4999339;28;98320;-43
2021/01/20 07:56:07;;;;;;;31.02;14.00;;;23.20;56.20;;;;;;4992953;28;95897;-41
2021/01/20 07:58:44;;;;;;;21.80;11.50;;;23.20;57.00;;;;;;4983151;28;97403;-38
2021/01/20 08:01:31;;;;;;;23.33;10.07;;;23.20;58.40;;;;;;4995987;28;95678;-42
2021/01/20 08:04:02;;;;;;;17.02;7.15;;;23.20;58.40;;;;;;5004473;28;95954;-38
2021/01/20 08:06:43;;;;;;;20.00;8.23;;;23.30;59.20;;;;;;4996903;28;95977;-40
2021/01/20 08:09:14;;;;;;;19.95;8.23;;;23.40;59.30;;;;;;5003032;28;96008;-40
2021/01/20 08:11:47;;;;;;;19.17;7.38;;;23.40;59.60;;;;;;5001957;28;96336;-39
2021/01/20 08:14:19;;;;;;;21.15;7.88;;;23.50;60.00;;;;;;5005549;28;96272;-39
2021/01/20 08:16:55;;;;;;;19.02;6.72;;;23.50;60.20;;;;;;4997172;28;102159;-38
2021/01/20 08:19:31;;;;;;;13.27;5.65;;;23.50;60.90;;;;;;5005152;28;96077;-39
2021/01/20 08:22:14;;;;;;;16.00;5.88;;;23.60;60.50;;;;;;4998650;28;96382;-39
2021/01/20 08:24:53;;;;;;;18.15;5.95;;;23.60;60.10;;;;;;4999151;28;96452;-39
2021/01/20 08:27:31;;;;;;;22.92;6.47;;;23.60;60.30;;;;;;4997991;28;95885;-39
2021/01/20 08:30:01;;;;;;;19.77;5.88;;;23.60;60.30;;;;;;5005156;28;96224;-39
2021/01/20 08:32:31;;;;;;;12.52;5.07;;;23.50;60.30;;;;;;4993450;28;97256;-39
2021/01/20 08:35:03;;;;;;;13.82;4.30;;;23.50;60.90;;;;;;5003111;28;95914;-39
2021/01/20 08:37:40;;;;;;;14.88;4.72;;;23.50;60.20;;;;;;5000145;28;96566;-39
2021/01/20 08:40:18;;;;;;;15.80;5.22;;;23.50;60.10;;;;;;4997982;28;95855;-47
2021/01/20 08:42:50;;;;;;;9.75;3.88;;;23.50;60.20;;;;;;4998993;28;95900;-48
2021/01/20 08:45:23;;;;;;;11.43;4.47;;;23.50;60.20;;;;;;4997908;28;96153;-48
2021/01/20 08:48:08;;;;;;;18.25;5.00;;;23.50;60.40;;;;;;5001130;28;95802;-48
2021/01/20 08:50:51;;;;;;;9.98;3.58;;;23.50;60.60;;;;;;5005076;28;95827;-39
2021/01/20 08:53:28;;;;;;;14.40;3.60;;;23.50;61.30;;;;;;5001702;28;95530;-40
2021/01/20 08:55:57;;;;;;;9.75;3.67;;;23.50;60.20;;;;;;5001471;28;95785;-39
2021/01/20 08:58:36;;;;;;;12.65;3.40;;;23.50;60.40;;;;;;4998250;28;96392;-39
2021/01/20 09:01:22;;;;;;;14.57;3.10;;;23.40;60.40;;;;;;4998979;28;95785;-39
2021/01/20 09:03:59;;;;;;;12.77;4.05;;;23.40;60.40;;;;;;5000539;28;95678;-39
2021/01/20 09:06:31;;;;;;;8.90;2.63;;;23.40;60.50;;;;;;5003436;28;96642;-47
2021/01/20 09:09:03;;;;;;;10.18;3.47;;;23.40;60.40;;;;;;4999513;28;97221;-39
2021/01/20 09:11:42;;;;;;;12.77;3.92;;;23.30;60.20;;;;;;5000377;28;95854;-39
2021/01/20 09:14:11;;;;;;;7.70;3.05;;;23.30;60.20;;;;;;4994906;28;96735;-39
2021/01/20 09:16:41;;;;;;;11.35;2.92;;;23.30;60.10;;;;;;4999281;28;95861;-39
2021/01/20 09:19:14;;;;;;;13.70;3.53;;;23.30;60.20;;;;;;4999006;28;95936;-39
2021/01/20 09:21:45;;;;;;;8.85;3.03;;;23.30;60.10;;;;;;5001831;28;95912;-37
2021/01/20 09:24:14;;;;;;;11.30;3.70;;;23.30;60.10;;;;;;4997927;28;100832;-47
2021/01/20 09:26:52;;;;;;;10.48;2.95;;;23.30;59.80;;;;;;5001971;28;96390;-47
2021/01/20 09:29:27;;;;;;;9.80;3.30;;;23.30;60.10;;;;;;4995450;28;96517;-47
2021/01/20 09:31:57;;;;;;;9.50;3.03;;;23.20;60.00;;;;;;4993467;28;96682;-47
2021/01/20 09:34:27;;;;;;;11.33;3.40;;;23.20;60.00;;;;;;4997915;28;95743;-47
2021/01/20 09:36:58;;;;;;;11.00;3.05;;;23.10;59.80;;;;;;5001247;28;96617;-47
2021/01/20 09:39:28;;;;;;;11.18;3.05;;;23.10;59.70;;;;;;4997620;28;96484;-47
2021/01/20 09:41:57;;;;;;;12.02;3.35;;;23.10;59.90;;;;;;4999865;28;97314;-47
2021/01/20 09:44:27;;;;;;;9.30;3.10;;;23.00;59.80;;;;;;4995222;28;96188;-47
2021/01/20 09:46:57;;;;;;;12.55;3.65;;;23.00;59.60;;;;;;4984281;28;98470;-47
2021/01/20 09:49:29;;;;;;;12.65;3.40;;;23.00;60.20;;;;;;4998243;28;95839;-39
2021/01/20 09:51:59;;;;;;;16.07;3.27;;;23.00;59.70;;;;;;5000501;28;95969;-39
2021/01/20 09:54:32;;;;;;;9.50;2.75;;;23.00;59.60;;;;;;4999051;28;96623;-39
2021/01/20 09:57:03;;;;;;;11.98;2.67;;;22.90;59.00;;;;;;4985025;28;98703;-39
2021/01/20 09:59:34;;;;;;;12.45;3.15;;;22.90;59.40;;;;;;4994451;28;97229;-39
2021/01/20 10:02:05;;;;;;;15.68;3.58;;;22.80;59.50;;;;;;4992135;28;96013;-39
2021/01/20 10:04:36;;;;;;;8.68;2.58;;;22.80;59.30;;;;;;4995193;28;95900;-38
2021/01/20 10:07:07;;;;;;;6.80;2.65;;;22.70;59.20;;;;;;4995857;28;96494;-39
2021/01/20 10:09:37;;;;;;;6.80;2.97;;;22.70;59.10;;;;;;4994846;28;96085;-38
2021/01/20 10:12:10;;;;;;;5.82;2.67;;;22.70;59.20;;;;;;4998045;28;95328;-38
2021/01/20 10:14:44;;;;;;;11.90;2.45;;;22.60;59.00;;;;;;4990435;28;96538;-38
2021/01/20 10:17:16;;;;;;;7.47;2.72;;;22.60;58.80;;;;;;4991258;28;96420;-46
2021/01/20 10:19:47;;;;;;;11.18;2.28;;;22.50;59.00;;;;;;4995845;28;96074;-46
2021/01/20 10:22:18;;;;;;;8.82;2.20;;;22.50;59.10;;;;;;4985611;28;95862;-46
2021/01/20 10:24:47;;;;;;;6.05;2.08;;;22.40;58.70;;;;;;4991360;28;95874;-46
2021/01/20 10:27:17;;;;;;;6.13;2.03;;;22.40;58.70;;;;;;4989943;28;97098;-46
2021/01/20 10:29:47;;;;;;;7.53;2.50;;;22.40;58.90;;;;;;4987590;28;97731;-45
2021/01/20 10:32:17;;;;;;;6.45;2.40;;;22.30;58.80;;;;;;4983934;28;95972;-47
2021/01/20 10:34:50;;;;;;;8.95;2.10;;;22.30;58.90;;;;;;4989198;28;95625;-47
2021/01/20 10:37:20;;;;;;;12.80;3.58;;;22.30;59.00;;;;;;4985588;28;96628;-46
2021/01/20 10:39:51;;;;;;;9.57;2.65;;;22.30;59.10;;;;;;4995626;28;95957;-38
2021/01/20 10:42:22;;;;;;;32.92;3.55;;;22.30;59.40;;;;;;4998521;28;95765;-48
2021/01/20 10:44:55;;;;;;;13.98;2.90;;;22.30;59.20;;;;;;4995510;28;95760;-47
2021/01/20 10:47:27;;;;;;;12.40;2.45;;;22.20;59.00;;;;;;4989273;28;100551;-47
2021/01/20 10:49:59;;;;;;;6.47;2.65;;;22.20;59.20;;;;;;4991015;28;96316;-39
2021/01/20 10:52:30;;;;;;;7.13;2.00;;;22.20;59.10;;;;;;4990468;28;95743;-38
2021/01/20 10:55:02;;;;;;;8.50;2.50;;;22.10;58.90;;;;;;4992666;28;96053;-39
2021/01/20 10:57:33;;;;;;;6.85;2.40;;;22.00;58.70;;;;;;4991144;28;96701;-39
2021/01/20 11:00:05;;;;;;;10.50;2.60;;;22.00;58.90;;;;;;5001238;28;95751;-37
2021/01/20 11:02:35;;;;;;;6.38;2.50;;;21.90;58.60;;;;;;4995691;28;95985;-40
2021/01/20 11:05:06;;;;;;;8.73;2.05;;;21.80;58.30;;;;;;5008039;28;96277;-38
2021/01/20 11:07:37;;;;;;;5.90;1.80;;;21.70;59.00;;;;;;4998805;28;96008;-38
2021/01/20 11:10:09;;;;;;;8.02;1.90;;;21.60;58.90;;;;;;4993253;28;95786;-38
2021/01/20 11:12:51;;;;;;;5.97;1.95;;;21.50;59.20;;;;;;5002201;28;96192;-38
2021/01/20 11:15:22;;;;;;;7.93;2.50;;;21.50;59.90;;;;;;5000859;28;95602;-39
2021/01/20 11:17:53;;;;;;;8.70;2.58;;;21.60;59.90;;;;;;4998209;28;96512;-38
2021/01/20 11:20:24;;;;;;;9.55;2.50;;;21.60;60.00;;;;;;4997977;28;95805;-39
2021/01/20 11:22:55;;;;;;;4.03;2.47;;;21.70;59.60;;;;;;4997152;28;95775;-38
2021/01/20 11:25:25;;;;;;;8.03;2.33;;;21.70;59.30;;;;;;5001571;28;95746;-38
2021/01/20 11:27:54;;;;;;;8.98;2.40;;;21.60;59.60;;;;;;4999347;28;96571;-47
2021/01/20 11:30:24;;;;;;;10.90;2.63;;;21.60;58.50;;;;;;4996182;28;96221;-46
2021/01/20 11:32:54;;;;;;;8.00;2.55;;;21.40;58.30;;;;;;5008164;28;95538;-47
2021/01/20 11:35:25;;;;;;;10.82;2.92;;;21.20;58.40;;;;;;5005062;28;95748;-46
2021/01/20 11:37:57;;;;;;;8.45;1.92;;;21.00;59.00;;;;;;5005326;28;96157;-47
2021/01/20 11:40:29;;;;;;;9.23;1.70;;;20.80;59.30;;;;;;4992198;28;95837;-47
2021/01/20 11:43:01;;;;;;;5.57;2.45;;;20.60;60.20;;;;;;4996370;28;95928;-46
2021/01/20 11:45:37;;;;;;;8.15;1.90;;;20.50;60.90;;;;;;4993828;28;95903;-47
2021/01/20 11:48:08;;;;;;;10.68;2.50;;;20.50;60.70;;;;;;4999236;28;98274;-46
2021/01/20 11:50:39;;;;;;;14.17;2.10;;;20.40;60.60;;;;;;4994528;28;96224;-46
2021/01/20 11:53:11;;;;;;;;;;;20.10;61.90;;;;;;4993979;28;95925;-47
2021/01/20 11:55:42;;;;;;;8.68;1.85;;;20.00;62.40;;;;;;4995692;28;95401;-48
2021/01/20 11:58:13;;;;;;;7.20;1.98;;;19.70;62.30;;;;;;4991756;28;95872;-38
2021/01/20 12:00:44;;;;;;;7.07;2.15;;;19.50;63.60;;;;;;4983466;28;100464;-38
2021/01/20 12:03:15;;;;;;;7.93;1.70;;;19.30;64.40;;;;;;4992774;28;95818;-38
2021/01/20 12:05:47;;;;;;;7.60;2.05;;;19.30;64.20;;;;;;4988607;28;96193;-37
2021/01/20 12:08:17;;;;;;;;;;;19.20;64.70;;;;;;4993809;28;95916;-38
2021/01/20 12:10:48;;;;;;;8.45;2.10;;;19.20;63.70;;;;;;4995672;28;95651;-38
2021/01/20 12:13:19;;;;;;;8.43;1.97;;;19.30;64.20;;;;;;4995790;28;96278;-49
2021/01/20 12:16:03;;;;;;;6.22;2.15;;;19.40;64.00;;;;;;4982233;28;98596;-39
2021/01/20 12:18:37;;;;;;;5.75;2.05;;;19.40;63.70;;;;;;4992807;28;95904;-39
2021/01/20 12:21:07;;;;;;;5.70;2.47;;;19.40;64.10;;;;;;4988183;28;95286;-38
2021/01/20 12:23:38;;;;;;;;;;;19.30;63.90;;;;;;4996414;28;96019;-40
2021/01/20 12:26:08;;;;;;;5.47;1.80;;;19.20;63.90;;;;;;4992554;28;95523;-38
2021/01/20 12:28:38;;;;;;;9.25;2.50;;;19.10;64.90;;;;;;4992562;28;96199;-40
2021/01/20 12:31:08;;;;;;;6.85;2.05;;;19.20;65.00;;;;;;4985227;28;97961;-39
2021/01/20 12:33:42;;;;;;;12.63;2.35;;;19.40;64.70;;;;;;4986473;28;96083;-37
2021/01/20 12:36:14;;;;;;;5.35;1.52;;;19.50;64.20;;;;;;4992325;28;95873;-38
2021/01/20 12:38:45;;;;;;;3.20;1.50;;;19.60;64.00;;;;;;4988530;28;96428;-39
2021/01/20 12:41:16;;;;;;;6.93;2.23;;;19.70;63.70;;;;;;4996710;28;96123;-39
2021/01/20 12:43:46;;;;;;;7.80;2.05;;;19.80;63.70;;;;;;4990146;28;95528;-39
2021/01/20 12:46:19;;;;;;;5.15;2.00;;;19.90;63.40;;;;;;4988234;28;95562;-38
2021/01/20 12:49:04;;;;;;;5.10;1.63;;;19.90;63.30;;;;;;4992391;28;95871;-40
2021/01/20 12:51:35;;;;;;;3.03;1.50;;;20.00;63.30;;;;;;4990461;28;104039;-40
2021/01/20 12:54:06;;;;;;;4.18;1.70;;;20.10;63.10;;;;;;4997226;28;95657;-46
2021/01/20 12:56:37;;;;;;;5.38;1.60;;;20.20;63.00;;;;;;4991977;28;96617;-39
2021/01/20 12:59:08;;;;;;;5.93;2.13;;;20.20;62.60;;;;;;4996017;28;95844;-40
2021/01/20 13:01:39;;;;;;;6.13;1.43;;;20.30;62.60;;;;;;4999580;28;95547;-45
2021/01/20 13:04:10;;;;;;;9.57;2.08;;;20.30;62.40;;;;;;4991598;28;95841;-40
2021/01/20 13:06:48;;;;;;;3.35;1.30;;;20.40;62.30;;;;;;4989721;28;95224;-41
2021/01/20 13:09:20;;;;;;;6.45;2.25;;;20.40;62.20;;;;;;4988679;28;96150;-40
2021/01/20 13:11:50;;;;;;;4.13;1.42;;;20.50;62.20;;;;;;4992042;28;95991;-39
2021/01/20 13:14:20;;;;;;;4.00;1.40;;;20.50;62.00;;;;;;4990462;28;96154;-38
2021/01/20 13:16:50;;;;;;;5.18;1.17;;;20.50;61.90;;;;;;4989651;28;95900;-39
2021/01/20 13:19:25;;;;;;;5.60;1.70;;;20.50;61.80;;;;;;4993840;28;103080;-40
2021/01/20 13:21:56;;;;;;;4.70;1.58;;;20.50;61.70;;;;;;4994676;28;96403;-40
2021/01/20 13:24:26;;;;;;;4.55;1.45;;;20.60;61.80;;;;;;4986738;28;96124;-38